sensor_id;sensor_type;location;lat;lon;timestamp;P1;durP1;ratioP1;P2;durP2;ratioP2
3207;SDS011;1616;52.394;9.756;2022-12-07T00:01:07;53.27;;;21.40;;
3207;SDS011;1616;52.394;9.756;2022-12-07T00:03:35;48.97;;;20.73;;
3207;SDS011;1616;52.394;9.756;2022-12-07T00:06:02;37.57;;;20.27;;
3207;SDS011;1616;52.394;9.756;2022-12-07T00:08:29;44.83;;;21.37;;
3207;SDS011;1616;52.394;9.756;2022-12-07T00:11:00;49.13;;;22.13;;
3207;SDS011;1616;52.394;9.756;2022-12-07T00:13:31;44.23;;;21.43;;
3207;SDS011;1616;52.394;9.756;2022-12-07T00:16:12;45.00;;;22.37;;
3207;SDS011;1616;52.394;9.756;2022-12-07T00:18:41;44.63;;;21.53;;
3207;SDS011;1616;52.394;9.756;2022-12-07T00:21:12;42.00;;;22.00;;
3207;SDS011;1616;52.394;9.756;2022-12-07T00:23:40;43.63;;;22.27;;
3207;SDS011;1616;52.394;9.756;2022-12-07T00:26:08;47.67;;;20.50;;
3207;SDS011;1616;52.394;9.756;2022-12-07T00:28:33;42.67;;;22.00;;
3207;SDS011;1616;52.394;9.756;2022-12-07T00:31:06;39.70;;;21.50;;
3207;SDS011;1616;52.394;9.756;2022-12-07T00:33:34;40.00;;;20.83;;
3207;SDS011;1616;52.394;9.756;2022-12-07T00:36:01;39.20;;;21.40;;
3207;SDS011;1616;52.394;9.756;2022-12-07T00:38:29;41.77;;;21.50;;
3207;SDS011;1616;52.394;9.756;2022-12-07T00:40:57;46.90;;;23.20;;
3207;SDS011;1616;52.394;9.756;2022-12-07T00:43:26;42.30;;;22.67;;
3207;SDS011;1616;52.394;9.756;2022-12-07T00:45:52;46.07;;;21.60;;
3207;SDS011;1616;52.394;9.756;2022-12-07T00:48:18;36.93;;;19.50;;
3207;SDS011;1616;52.394;9.756;2022-12-07T00:50:45;36.57;;;20.60;;
3207;SDS011;1616;52.394;9.756;2022-12-07T00:53:10;36.60;;;19.90;;
3207;SDS011;1616;52.394;9.756;2022-12-07T00:55:36;33.07;;;19.13;;
3207;SDS011;1616;52.394;9.756;2022-12-07T00:58:03;38.50;;;20.50;;
3207;SDS011;1616;52.394;9.756;2022-12-07T01:00:29;39.00;;;20.80;;
3207;SDS011;1616;52.394;9.756;2022-12-07T01:02:55;34.43;;;20.43;;
3207;SDS011;1616;52.394;9.756;2022-12-07T01:05:20;33.90;;;17.70;;
3207;SDS011;1616;52.394;9.756;2022-12-07T01:07:46;36.13;;;20.40;;
3207;SDS011;1616;52.394;9.756;2022-12-07T01:10:12;32.70;;;19.90;;
3207;SDS011;1616;52.394;9.756;2022-12-07T01:12:38;36.00;;;20.40;;
3207;SDS011;1616;52.394;9.756;2022-12-07T01:15:05;36.93;;;22.00;;
3207;SDS011;1616;52.394;9.756;2022-12-07T01:17:31;40.60;;;22.10;;
3207;SDS011;1616;52.394;9.756;2022-12-07T01:19:57;30.00;;;19.10;;
3207;SDS011;1616;52.394;9.756;2022-12-07T01:22:23;37.03;;;21.87;;
3207;SDS011;1616;52.394;9.756;2022-12-07T01:24:49;40.50;;;20.60;;
3207;SDS011;1616;52.394;9.756;2022-12-07T01:27:15;43.57;;;22.57;;
3207;SDS011;1616;52.394;9.756;2022-12-07T01:29:42;35.03;;;20.57;;
3207;SDS011;1616;52.394;9.756;2022-12-07T01:32:08;41.63;;;24.10;;
3207;SDS011;1616;52.394;9.756;2022-12-07T01:34:34;44.57;;;21.93;;
3207;SDS011;1616;52.394;9.756;2022-12-07T01:37:00;45.00;;;21.83;;
3207;SDS011;1616;52.394;9.756;2022-12-07T01:39:26;40.40;;;22.30;;
3207;SDS011;1616;52.394;9.756;2022-12-07T01:41:52;40.70;;;24.20;;
3207;SDS011;1616;52.394;9.756;2022-12-07T01:44:20;39.13;;;20.83;;
3207;SDS011;1616;52.394;9.756;2022-12-07T01:46:49;39.70;;;23.13;;
3207;SDS011;1616;52.394;9.756;2022-12-07T01:50:00;43.50;;;24.40;;
3207;SDS011;1616;52.394;9.756;2022-12-07T01:52:06;39.07;;;21.40;;
3207;SDS011;1616;52.394;9.756;2022-12-07T01:54:57;39.50;;;22.13;;
3207;SDS011;1616;52.394;9.756;2022-12-07T01:57:28;38.93;;;22.67;;
3207;SDS011;1616;52.394;9.756;2022-12-07T01:59:56;40.43;;;21.97;;
3207;SDS011;1616;52.394;9.756;2022-12-07T02:02:23;39.67;;;21.57;;
3207;SDS011;1616;52.394;9.756;2022-12-07T02:04:53;36.90;;;20.77;;
3207;SDS011;1616;52.394;9.756;2022-12-07T02:07:20;32.60;;;21.17;;
3207;SDS011;1616;52.394;9.756;2022-12-07T02:09:49;38.70;;;22.50;;
3207;SDS011;1616;52.394;9.756;2022-12-07T02:12:14;35.23;;;21.97;;
3207;SDS011;1616;52.394;9.756;2022-12-07T02:14:40;36.70;;;21.40;;
3207;SDS011;1616;52.394;9.756;2022-12-07T02:31:06;36.83;;;20.77;;
3207;SDS011;1616;52.394;9.756;2022-12-07T02:33:42;33.00;;;20.20;;
3207;SDS011;1616;52.394;9.756;2022-12-07T02:36:18;34.23;;;20.77;;
3207;SDS011;1616;52.394;9.756;2022-12-07T02:38:55;36.23;;;21.00;;
3207;SDS011;1616;52.394;9.756;2022-12-07T02:41:36;39.20;;;21.40;;
3207;SDS011;1616;52.394;9.756;2022-12-07T02:44:06;38.07;;;20.63;;
3207;SDS011;1616;52.394;9.756;2022-12-07T02:46:38;33.03;;;19.10;;
3207;SDS011;1616;52.394;9.756;2022-12-07T02:49:07;33.53;;;19.30;;
3207;SDS011;1616;52.394;9.756;2022-12-07T02:51:33;35.93;;;20.97;;
3207;SDS011;1616;52.394;9.756;2022-12-07T02:54:12;36.67;;;19.27;;
3207;SDS011;1616;52.394;9.756;2022-12-07T02:59:45;28.77;;;16.60;;
3207;SDS011;1616;52.394;9.756;2022-12-07T03:05:20;29.27;;;18.60;;
3207;SDS011;1616;52.394;9.756;2022-12-07T03:08:17;32.03;;;19.47;;
3207;SDS011;1616;52.394;9.756;2022-12-07T03:16:35;27.93;;;17.87;;
3207;SDS011;1616;52.394;9.756;2022-12-07T03:19:08;26.60;;;15.97;;
3207;SDS011;1616;52.394;9.756;2022-12-07T03:21:39;35.13;;;18.43;;
3207;SDS011;1616;52.394;9.756;2022-12-07T03:24:42;35.83;;;17.20;;
3207;SDS011;1616;52.394;9.756;2022-12-07T03:27:21;33.10;;;17.37;;
3207;SDS011;1616;52.394;9.756;2022-12-07T03:30:04;28.17;;;15.90;;
3207;SDS011;1616;52.394;9.756;2022-12-07T03:32:45;24.57;;;15.20;;
3207;SDS011;1616;52.394;9.756;2022-12-07T03:35:23;22.63;;;13.97;;
3207;SDS011;1616;52.394;9.756;2022-12-07T03:38:00;23.70;;;13.60;;
3207;SDS011;1616;52.394;9.756;2022-12-07T03:40:47;29.27;;;13.70;;
3207;SDS011;1616;52.394;9.756;2022-12-07T03:43:18;21.60;;;14.00;;
3207;SDS011;1616;52.394;9.756;2022-12-07T03:45:46;17.80;;;12.23;;
3207;SDS011;1616;52.394;9.756;2022-12-07T03:48:25;20.13;;;11.70;;
3207;SDS011;1616;52.394;9.756;2022-12-07T03:51:40;21.20;;;11.40;;
3207;SDS011;1616;52.394;9.756;2022-12-07T03:53:46;18.30;;;12.13;;
3207;SDS011;1616;52.394;9.756;2022-12-07T03:56:25;19.30;;;11.17;;
3207;SDS011;1616;52.394;9.756;2022-12-07T03:58:54;17.50;;;10.87;;
3207;SDS011;1616;52.394;9.756;2022-12-07T04:01:22;26.07;;;12.07;;
3207;SDS011;1616;52.394;9.756;2022-12-07T04:03:48;33.57;;;11.73;;
3207;SDS011;1616;52.394;9.756;2022-12-07T04:06:14;19.77;;;10.80;;
3207;SDS011;1616;52.394;9.756;2022-12-07T04:08:40;19.60;;;11.97;;
3207;SDS011;1616;52.394;9.756;2022-12-07T04:11:06;26.90;;;12.83;;
3207;SDS011;1616;52.394;9.756;2022-12-07T04:13:31;22.93;;;11.97;;
3207;SDS011;1616;52.394;9.756;2022-12-07T04:16:17;21.97;;;12.20;;
3207;SDS011;1616;52.394;9.756;2022-12-07T04:18:43;14.73;;;10.70;;
3207;SDS011;1616;52.394;9.756;2022-12-07T04:21:08;15.80;;;11.07;;
3207;SDS011;1616;52.394;9.756;2022-12-07T04:23:34;18.10;;;11.67;;
3207;SDS011;1616;52.394;9.756;2022-12-07T04:25:59;18.00;;;11.13;;
3207;SDS011;1616;52.394;9.756;2022-12-07T04:28:25;15.50;;;9.80;;
3207;SDS011;1616;52.394;9.756;2022-12-07T04:30:51;22.93;;;11.60;;
3207;SDS011;1616;52.394;9.756;2022-12-07T04:33:17;15.37;;;10.00;;
3207;SDS011;1616;52.394;9.756;2022-12-07T04:35:42;25.00;;;11.77;;
3207;SDS011;1616;52.394;9.756;2022-12-07T04:38:10;23.83;;;11.80;;
3207;SDS011;1616;52.394;9.756;2022-12-07T04:40:36;19.17;;;10.87;;
3207;SDS011;1616;52.394;9.756;2022-12-07T04:43:01;16.40;;;11.47;;
3207;SDS011;1616;52.394;9.756;2022-12-07T04:45:27;18.33;;;11.37;;
3207;SDS011;1616;52.394;9.756;2022-12-07T04:47:54;18.30;;;11.73;;
3207;SDS011;1616;52.394;9.756;2022-12-07T04:50:20;27.43;;;10.10;;
3207;SDS011;1616;52.394;9.756;2022-12-07T04:52:45;14.40;;;8.43;;
3207;SDS011;1616;52.394;9.756;2022-12-07T04:55:11;21.53;;;10.60;;
3207;SDS011;1616;52.394;9.756;2022-12-07T04:57:37;14.40;;;10.23;;
3207;SDS011;1616;52.394;9.756;2022-12-07T05:00:02;19.27;;;9.27;;
3207;SDS011;1616;52.394;9.756;2022-12-07T05:02:28;15.43;;;9.83;;
3207;SDS011;1616;52.394;9.756;2022-12-07T05:04:54;18.47;;;9.93;;
3207;SDS011;1616;52.394;9.756;2022-12-07T05:07:21;20.57;;;10.60;;
3207;SDS011;1616;52.394;9.756;2022-12-07T05:09:46;15.00;;;9.83;;
3207;SDS011;1616;52.394;9.756;2022-12-07T05:12:12;20.33;;;9.70;;
3207;SDS011;1616;52.394;9.756;2022-12-07T05:14:38;21.23;;;9.50;;
3207;SDS011;1616;52.394;9.756;2022-12-07T05:17:05;18.87;;;11.07;;
3207;SDS011;1616;52.394;9.756;2022-12-07T05:19:30;17.27;;;8.83;;
3207;SDS011;1616;52.394;9.756;2022-12-07T05:21:56;17.17;;;8.83;;
3207;SDS011;1616;52.394;9.756;2022-12-07T05:24:22;14.43;;;8.87;;
3207;SDS011;1616;52.394;9.756;2022-12-07T05:26:48;19.83;;;9.27;;
3207;SDS011;1616;52.394;9.756;2022-12-07T05:29:15;23.43;;;9.20;;
3207;SDS011;1616;52.394;9.756;2022-12-07T05:31:42;15.30;;;8.87;;
3207;SDS011;1616;52.394;9.756;2022-12-07T05:34:08;16.20;;;8.83;;
3207;SDS011;1616;52.394;9.756;2022-12-07T05:36:34;13.20;;;8.20;;
3207;SDS011;1616;52.394;9.756;2022-12-07T05:39:00;18.20;;;8.63;;
3207;SDS011;1616;52.394;9.756;2022-12-07T05:41:26;14.70;;;8.60;;
3207;SDS011;1616;52.394;9.756;2022-12-07T05:44:10;11.10;;;7.53;;
3207;SDS011;1616;52.394;9.756;2022-12-07T05:46:36;14.67;;;7.97;;
3207;SDS011;1616;52.394;9.756;2022-12-07T05:49:02;13.23;;;7.97;;
3207;SDS011;1616;52.394;9.756;2022-12-07T05:51:28;12.63;;;7.33;;
3207;SDS011;1616;52.394;9.756;2022-12-07T05:53:54;11.60;;;8.00;;
3207;SDS011;1616;52.394;9.756;2022-12-07T05:56:19;15.97;;;8.17;;
3207;SDS011;1616;52.394;9.756;2022-12-07T05:58:45;15.33;;;7.87;;
3207;SDS011;1616;52.394;9.756;2022-12-07T06:01:30;13.23;;;8.50;;
3207;SDS011;1616;52.394;9.756;2022-12-07T06:03:55;9.37;;;7.23;;
3207;SDS011;1616;52.394;9.756;2022-12-07T06:06:21;13.93;;;7.43;;
3207;SDS011;1616;52.394;9.756;2022-12-07T06:08:47;15.20;;;8.50;;
3207;SDS011;1616;52.394;9.756;2022-12-07T06:11:14;14.67;;;7.47;;
3207;SDS011;1616;52.394;9.756;2022-12-07T06:13:59;13.00;;;5.90;;
3207;SDS011;1616;52.394;9.756;2022-12-07T06:16:26;18.10;;;6.90;;
3207;SDS011;1616;52.394;9.756;2022-12-07T06:18:51;11.10;;;6.97;;
3207;SDS011;1616;52.394;9.756;2022-12-07T06:21:17;9.47;;;6.33;;
3207;SDS011;1616;52.394;9.756;2022-12-07T06:23:43;13.43;;;7.17;;
3207;SDS011;1616;52.394;9.756;2022-12-07T06:26:08;9.60;;;6.70;;
3207;SDS011;1616;52.394;9.756;2022-12-07T06:28:34;13.43;;;6.40;;
3207;SDS011;1616;52.394;9.756;2022-12-07T06:31:00;9.60;;;6.13;;
3207;SDS011;1616;52.394;9.756;2022-12-07T06:33:28;8.93;;;5.50;;
3207;SDS011;1616;52.394;9.756;2022-12-07T06:35:54;7.00;;;5.77;;
3207;SDS011;1616;52.394;9.756;2022-12-07T06:38:20;10.27;;;5.23;;
3207;SDS011;1616;52.394;9.756;2022-12-07T06:40:46;6.10;;;5.27;;
3207;SDS011;1616;52.394;9.756;2022-12-07T06:43:13;6.30;;;4.57;;
3207;SDS011;1616;52.394;9.756;2022-12-07T06:45:40;10.13;;;4.60;;
3207;SDS011;1616;52.394;9.756;2022-12-07T06:48:06;11.50;;;5.07;;
3207;SDS011;1616;52.394;9.756;2022-12-07T06:50:37;9.10;;;4.00;;
3207;SDS011;1616;52.394;9.756;2022-12-07T06:53:03;11.23;;;4.93;;
3207;SDS011;1616;52.394;9.756;2022-12-07T06:55:28;15.80;;;3.93;;
3207;SDS011;1616;52.394;9.756;2022-12-07T06:57:54;8.53;;;4.23;;
3207;SDS011;1616;52.394;9.756;2022-12-07T07:00:20;5.47;;;3.43;;
3207;SDS011;1616;52.394;9.756;2022-12-07T07:02:46;11.40;;;3.10;;
3207;SDS011;1616;52.394;9.756;2022-12-07T07:05:11;12.17;;;4.10;;
3207;SDS011;1616;52.394;9.756;2022-12-07T07:07:37;16.43;;;4.23;;
3207;SDS011;1616;52.394;9.756;2022-12-07T07:10:03;4.60;;;2.90;;
3207;SDS011;1616;52.394;9.756;2022-12-07T07:12:29;7.30;;;3.60;;
3207;SDS011;1616;52.394;9.756;2022-12-07T07:14:54;4.30;;;3.40;;
3207;SDS011;1616;52.394;9.756;2022-12-07T07:17:20;6.73;;;3.87;;
3207;SDS011;1616;52.394;9.756;2022-12-07T07:19:47;4.30;;;3.90;;
3207;SDS011;1616;52.394;9.756;2022-12-07T07:22:13;10.80;;;3.53;;
3207;SDS011;1616;52.394;9.756;2022-12-07T07:24:39;4.23;;;3.83;;
3207;SDS011;1616;52.394;9.756;2022-12-07T07:27:04;3.10;;;2.40;;
3207;SDS011;1616;52.394;9.756;2022-12-07T07:29:30;6.57;;;3.30;;
3207;SDS011;1616;52.394;9.756;2022-12-07T07:31:55;14.00;;;4.03;;
3207;SDS011;1616;52.394;9.756;2022-12-07T07:34:21;5.60;;;3.03;;
3207;SDS011;1616;52.394;9.756;2022-12-07T07:36:47;9.40;;;2.30;;
3207;SDS011;1616;52.394;9.756;2022-12-07T07:39:12;3.30;;;2.07;;
3207;SDS011;1616;52.394;9.756;2022-12-07T07:41:38;11.50;;;2.27;;
3207;SDS011;1616;52.394;9.756;2022-12-07T07:44:04;3.40;;;2.43;;
3207;SDS011;1616;52.394;9.756;2022-12-07T07:46:30;7.40;;;2.37;;
3207;SDS011;1616;52.394;9.756;2022-12-07T07:48:58;10.17;;;2.90;;
3207;SDS011;1616;52.394;9.756;2022-12-07T07:51:24;9.73;;;2.73;;
3207;SDS011;1616;52.394;9.756;2022-12-07T07:53:50;2.57;;;2.20;;
3207;SDS011;1616;52.394;9.756;2022-12-07T07:56:19;7.27;;;1.90;;
3207;SDS011;1616;52.394;9.756;2022-12-07T07:58:44;2.37;;;2.10;;
3207;SDS011;1616;52.394;9.756;2022-12-07T08:01:10;2.37;;;1.80;;
3207;SDS011;1616;52.394;9.756;2022-12-07T08:03:38;2.07;;;1.80;;
3207;SDS011;1616;52.394;9.756;2022-12-07T08:06:04;6.20;;;2.70;;
3207;SDS011;1616;52.394;9.756;2022-12-07T08:08:30;2.23;;;1.70;;
3207;SDS011;1616;52.394;9.756;2022-12-07T08:10:56;7.13;;;2.10;;
3207;SDS011;1616;52.394;9.756;2022-12-07T08:13:25;1.70;;;1.60;;
3207;SDS011;1616;52.394;9.756;2022-12-07T08:15:51;8.40;;;1.77;;
3207;SDS011;1616;52.394;9.756;2022-12-07T08:18:17;7.57;;;2.00;;
3207;SDS011;1616;52.394;9.756;2022-12-07T08:20:43;9.10;;;2.27;;
3207;SDS011;1616;52.394;9.756;2022-12-07T08:23:09;5.43;;;1.80;;
3207;SDS011;1616;52.394;9.756;2022-12-07T08:25:36;5.67;;;1.50;;
3207;SDS011;1616;52.394;9.756;2022-12-07T08:28:02;4.73;;;3.33;;
3207;SDS011;1616;52.394;9.756;2022-12-07T08:30:28;4.03;;;1.50;;
3207;SDS011;1616;52.394;9.756;2022-12-07T08:32:55;5.87;;;1.47;;
3207;SDS011;1616;52.394;9.756;2022-12-07T08:35:21;1.60;;;1.40;;
3207;SDS011;1616;52.394;9.756;2022-12-07T08:37:47;3.07;;;1.30;;
3207;SDS011;1616;52.394;9.756;2022-12-07T08:40:14;6.30;;;2.20;;
3207;SDS011;1616;52.394;9.756;2022-12-07T08:42:44;4.07;;;1.57;;
3207;SDS011;1616;52.394;9.756;2022-12-07T08:45:16;2.80;;;1.30;;
3207;SDS011;1616;52.394;9.756;2022-12-07T08:47:45;6.13;;;1.53;;
3207;SDS011;1616;52.394;9.756;2022-12-07T08:50:15;8.10;;;1.37;;
3207;SDS011;1616;52.394;9.756;2022-12-07T08:52:44;8.17;;;1.30;;
3207;SDS011;1616;52.394;9.756;2022-12-07T08:55:17;2.47;;;1.50;;
3207;SDS011;1616;52.394;9.756;2022-12-07T08:57:42;2.60;;;1.20;;
3207;SDS011;1616;52.394;9.756;2022-12-07T09:00:08;4.10;;;1.27;;
3207;SDS011;1616;52.394;9.756;2022-12-07T09:02:35;4.00;;;1.40;;
3207;SDS011;1616;52.394;9.756;2022-12-07T09:05:00;5.00;;;1.20;;
3207;SDS011;1616;52.394;9.756;2022-12-07T09:07:26;3.53;;;1.33;;
3207;SDS011;1616;52.394;9.756;2022-12-07T09:09:52;4.23;;;1.40;;
3207;SDS011;1616;52.394;9.756;2022-12-07T09:12:18;6.00;;;1.50;;
3207;SDS011;1616;52.394;9.756;2022-12-07T09:14:44;4.30;;;1.10;;
3207;SDS011;1616;52.394;9.756;2022-12-07T09:17:10;2.20;;;1.17;;
3207;SDS011;1616;52.394;9.756;2022-12-07T09:19:37;2.70;;;1.03;;
3207;SDS011;1616;52.394;9.756;2022-12-07T09:22:04;2.37;;;1.20;;
3207;SDS011;1616;52.394;9.756;2022-12-07T09:24:30;2.07;;;1.10;;
3207;SDS011;1616;52.394;9.756;2022-12-07T09:26:57;2.67;;;1.13;;
3207;SDS011;1616;52.394;9.756;2022-12-07T09:29:23;1.57;;;0.93;;
3207;SDS011;1616;52.394;9.756;2022-12-07T09:31:49;8.83;;;1.20;;
3207;SDS011;1616;52.394;9.756;2022-12-07T09:34:14;1.93;;;1.33;;
3207;SDS011;1616;52.394;9.756;2022-12-07T09:36:40;1.67;;;1.00;;
3207;SDS011;1616;52.394;9.756;2022-12-07T09:39:08;3.20;;;1.17;;
3207;SDS011;1616;52.394;9.756;2022-12-07T09:41:34;2.90;;;1.07;;
3207;SDS011;1616;52.394;9.756;2022-12-07T09:44:05;2.70;;;1.20;;
3207;SDS011;1616;52.394;9.756;2022-12-07T09:46:43;1.30;;;1.00;;
3207;SDS011;1616;52.394;9.756;2022-12-07T09:49:17;4.77;;;1.00;;
3207;SDS011;1616;52.394;9.756;2022-12-07T09:51:55;3.87;;;1.30;;
3207;SDS011;1616;52.394;9.756;2022-12-07T09:54:25;1.67;;;0.80;;
3207;SDS011;1616;52.394;9.756;2022-12-07T09:56:51;3.20;;;1.03;;
3207;SDS011;1616;52.394;9.756;2022-12-07T09:59:18;2.50;;;1.00;;
3207;SDS011;1616;52.394;9.756;2022-12-07T10:01:45;1.27;;;0.90;;
3207;SDS011;1616;52.394;9.756;2022-12-07T10:04:17;1.43;;;0.80;;
3207;SDS011;1616;52.394;9.756;2022-12-07T10:06:46;5.47;;;0.90;;
3207;SDS011;1616;52.394;9.756;2022-12-07T10:09:13;1.77;;;0.70;;
3207;SDS011;1616;52.394;9.756;2022-12-07T10:14:31;5.37;;;0.87;;
3207;SDS011;1616;52.394;9.756;2022-12-07T10:16:59;1.30;;;0.77;;
3207;SDS011;1616;52.394;9.756;2022-12-07T10:19:30;3.07;;;0.90;;
3207;SDS011;1616;52.394;9.756;2022-12-07T10:22:05;2.03;;;0.70;;
3207;SDS011;1616;52.394;9.756;2022-12-07T10:24:34;3.53;;;1.10;;
3207;SDS011;1616;52.394;9.756;2022-12-07T10:27:00;1.30;;;0.93;;
3207;SDS011;1616;52.394;9.756;2022-12-07T10:29:29;2.20;;;0.80;;
3207;SDS011;1616;52.394;9.756;2022-12-07T10:32:01;1.60;;;0.77;;
3207;SDS011;1616;52.394;9.756;2022-12-07T10:35:15;5.43;;;0.97;;
3207;SDS011;1616;52.394;9.756;2022-12-07T10:37:49;3.60;;;1.20;;
3207;SDS011;1616;52.394;9.756;2022-12-07T10:40:29;3.13;;;0.90;;
3207;SDS011;1616;52.394;9.756;2022-12-07T10:43:03;3.20;;;0.90;;
3207;SDS011;1616;52.394;9.756;2022-12-07T10:45:57;8.20;;;1.00;;
3207;SDS011;1616;52.394;9.756;2022-12-07T10:51:56;4.93;;;1.20;;
3207;SDS011;1616;52.394;9.756;2022-12-07T10:54:54;4.03;;;0.90;;
3207;SDS011;1616;52.394;9.756;2022-12-07T10:57:35;2.03;;;1.10;;
3207;SDS011;1616;52.394;9.756;2022-12-07T11:00:12;9.13;;;1.10;;
3207;SDS011;1616;52.394;9.756;2022-12-07T11:02:47;2.23;;;0.90;;
3207;SDS011;1616;52.394;9.756;2022-12-07T11:05:31;1.10;;;0.90;;
3207;SDS011;1616;52.394;9.756;2022-12-07T11:10:42;2.40;;;1.00;;
3207;SDS011;1616;52.394;9.756;2022-12-07T11:13:37;15.43;;;1.20;;
3207;SDS011;1616;52.394;9.756;2022-12-07T11:21:30;5.90;;;1.20;;
3207;SDS011;1616;52.394;9.756;2022-12-07T11:24:28;1.30;;;0.80;;
3207;SDS011;1616;52.394;9.756;2022-12-07T11:32:43;2.60;;;0.70;;
3207;SDS011;1616;52.394;9.756;2022-12-07T11:40:46;1.00;;;0.87;;
3207;SDS011;1616;52.394;9.756;2022-12-07T11:43:28;1.10;;;0.90;;
3207;SDS011;1616;52.394;9.756;2022-12-07T11:46:33;1.80;;;0.90;;
3207;SDS011;1616;52.394;9.756;2022-12-07T11:51:33;3.33;;;1.00;;
3207;SDS011;1616;52.394;9.756;2022-12-07T11:54:14;1.53;;;0.97;;
3207;SDS011;1616;52.394;9.756;2022-12-07T11:56:45;2.43;;;0.97;;
3207;SDS011;1616;52.394;9.756;2022-12-07T11:59:17;2.90;;;1.10;;
3207;SDS011;1616;52.394;9.756;2022-12-07T12:07:25;1.63;;;1.10;;
3207;SDS011;1616;52.394;9.756;2022-12-07T12:10:04;2.63;;;1.13;;
3207;SDS011;1616;52.394;9.756;2022-12-07T12:12:55;1.73;;;1.13;;
3207;SDS011;1616;52.394;9.756;2022-12-07T12:18:38;4.53;;;1.70;;
3207;SDS011;1616;52.394;9.756;2022-12-07T12:21:36;1.83;;;1.20;;
3207;SDS011;1616;52.394;9.756;2022-12-07T12:23:59;2.97;;;1.20;;
3207;SDS011;1616;52.394;9.756;2022-12-07T12:26:31;1.50;;;1.40;;
3207;SDS011;1616;52.394;9.756;2022-12-07T12:29:01;4.53;;;1.40;;
3207;SDS011;1616;52.394;9.756;2022-12-07T12:32:07;2.00;;;1.10;;
3207;SDS011;1616;52.394;9.756;2022-12-07T12:42:45;3.03;;;1.23;;
3207;SDS011;1616;52.394;9.756;2022-12-07T12:48:02;4.97;;;1.50;;
3207;SDS011;1616;52.394;9.756;2022-12-07T12:50:47;2.40;;;1.57;;
3207;SDS011;1616;52.394;9.756;2022-12-07T12:53:26;7.53;;;1.30;;
3207;SDS011;1616;52.394;9.756;2022-12-07T12:58:43;3.87;;;1.67;;
3207;SDS011;1616;52.394;9.756;2022-12-07T13:03:56;3.77;;;1.40;;
3207;SDS011;1616;52.394;9.756;2022-12-07T13:08:56;3.77;;;1.30;;
3207;SDS011;1616;52.394;9.756;2022-12-07T13:11:34;5.97;;;1.80;;
3207;SDS011;1616;52.394;9.756;2022-12-07T13:17:09;3.43;;;1.30;;
3207;SDS011;1616;52.394;9.756;2022-12-07T13:27:43;2.30;;;1.40;;
3207;SDS011;1616;52.394;9.756;2022-12-07T13:30:20;5.57;;;1.20;;
3207;SDS011;1616;52.394;9.756;2022-12-07T13:32:54;3.53;;;1.23;;
3207;SDS011;1616;52.394;9.756;2022-12-07T13:35:29;8.83;;;1.77;;
3207;SDS011;1616;52.394;9.756;2022-12-07T13:37:55;8.70;;;1.40;;
3207;SDS011;1616;52.394;9.756;2022-12-07T13:40:21;18.13;;;1.63;;
3207;SDS011;1616;52.394;9.756;2022-12-07T13:42:48;1.87;;;1.47;;
3207;SDS011;1616;52.394;9.756;2022-12-07T13:45:39;2.87;;;1.80;;
3207;SDS011;1616;52.394;9.756;2022-12-07T13:50:56;6.03;;;1.53;;
3207;SDS011;1616;52.394;9.756;2022-12-07T13:53:24;6.17;;;2.20;;
3207;SDS011;1616;52.394;9.756;2022-12-07T13:55:53;5.00;;;1.10;;
3207;SDS011;1616;52.394;9.756;2022-12-07T13:58:18;6.03;;;1.10;;
3207;SDS011;1616;52.394;9.756;2022-12-07T14:00:44;5.57;;;1.60;;
3207;SDS011;1616;52.394;9.756;2022-12-07T14:05:40;3.10;;;1.13;;
3207;SDS011;1616;52.394;9.756;2022-12-07T14:10:36;3.47;;;1.60;;
3207;SDS011;1616;52.394;9.756;2022-12-07T14:13:22;2.90;;;1.23;;
3207;SDS011;1616;52.394;9.756;2022-12-07T14:16:01;5.80;;;1.20;;
3207;SDS011;1616;52.394;9.756;2022-12-07T14:18:40;4.43;;;1.97;;
3207;SDS011;1616;52.394;9.756;2022-12-07T14:21:27;2.90;;;1.50;;
3207;SDS011;1616;52.394;9.756;2022-12-07T14:26:41;4.10;;;1.37;;
3207;SDS011;1616;52.394;9.756;2022-12-07T14:31:52;18.73;;;1.70;;
3207;SDS011;1616;52.394;9.756;2022-12-07T14:34:23;8.43;;;6.20;;
3207;SDS011;1616;52.394;9.756;2022-12-07T14:36:49;11.17;;;2.87;;
3207;SDS011;1616;52.394;9.756;2022-12-07T14:39:15;4.60;;;3.67;;
3207;SDS011;1616;52.394;9.756;2022-12-07T14:41:41;3.47;;;1.77;;
3207;SDS011;1616;52.394;9.756;2022-12-07T14:44:21;8.67;;;1.77;;
3207;SDS011;1616;52.394;9.756;2022-12-07T14:46:48;2.53;;;1.30;;
3207;SDS011;1616;52.394;9.756;2022-12-07T14:49:14;10.10;;;4.00;;
3207;SDS011;1616;52.394;9.756;2022-12-07T14:51:40;6.63;;;2.30;;
3207;SDS011;1616;52.394;9.756;2022-12-07T14:54:11;2.10;;;1.77;;
3207;SDS011;1616;52.394;9.756;2022-12-07T14:56:42;5.10;;;3.97;;
3207;SDS011;1616;52.394;9.756;2022-12-07T14:59:09;16.13;;;6.47;;
3207;SDS011;1616;52.394;9.756;2022-12-07T15:01:36;21.43;;;14.47;;
3207;SDS011;1616;52.394;9.756;2022-12-07T15:04:02;56.43;;;36.03;;
3207;SDS011;1616;52.394;9.756;2022-12-07T15:06:28;15.37;;;7.30;;
3207;SDS011;1616;52.394;9.756;2022-12-07T15:08:53;29.50;;;18.47;;
3207;SDS011;1616;52.394;9.756;2022-12-07T15:11:20;73.33;;;40.10;;
3207;SDS011;1616;52.394;9.756;2022-12-07T15:13:46;29.20;;;15.07;;
3207;SDS011;1616;52.394;9.756;2022-12-07T15:16:31;28.63;;;14.50;;
3207;SDS011;1616;52.394;9.756;2022-12-07T15:18:57;36.90;;;18.00;;
3207;SDS011;1616;52.394;9.756;2022-12-07T15:21:23;100.53;;;47.60;;
3207;SDS011;1616;52.394;9.756;2022-12-07T15:23:50;16.43;;;13.77;;
3207;SDS011;1616;52.394;9.756;2022-12-07T15:26:15;20.03;;;12.40;;
3207;SDS011;1616;52.394;9.756;2022-12-07T15:28:41;14.23;;;8.20;;
3207;SDS011;1616;52.394;9.756;2022-12-07T15:31:13;6.97;;;3.23;;
3207;SDS011;1616;52.394;9.756;2022-12-07T15:33:41;8.10;;;6.10;;
3207;SDS011;1616;52.394;9.756;2022-12-07T15:36:07;9.13;;;8.23;;
3207;SDS011;1616;52.394;9.756;2022-12-07T15:38:33;8.43;;;6.13;;
3207;SDS011;1616;52.394;9.756;2022-12-07T15:41:00;13.67;;;4.30;;
3207;SDS011;1616;52.394;9.756;2022-12-07T15:43:26;7.23;;;6.00;;
3207;SDS011;1616;52.394;9.756;2022-12-07T15:46:10;4.73;;;2.33;;
3207;SDS011;1616;52.394;9.756;2022-12-07T15:48:35;5.73;;;2.00;;
3207;SDS011;1616;52.394;9.756;2022-12-07T15:51:05;9.37;;;2.90;;
3207;SDS011;1616;52.394;9.756;2022-12-07T15:53:32;6.90;;;2.10;;
3207;SDS011;1616;52.394;9.756;2022-12-07T15:55:58;7.60;;;2.53;;
3207;SDS011;1616;52.394;9.756;2022-12-07T15:58:24;6.80;;;2.03;;
3207;SDS011;1616;52.394;9.756;2022-12-07T16:00:50;3.33;;;2.87;;
3207;SDS011;1616;52.394;9.756;2022-12-07T16:03:16;11.57;;;3.27;;
3207;SDS011;1616;52.394;9.756;2022-12-07T16:05:47;8.13;;;2.43;;
3207;SDS011;1616;52.394;9.756;2022-12-07T16:08:17;5.60;;;1.90;;
3207;SDS011;1616;52.394;9.756;2022-12-07T16:10:42;3.77;;;2.10;;
3207;SDS011;1616;52.394;9.756;2022-12-07T16:13:11;5.03;;;2.50;;
3207;SDS011;1616;52.394;9.756;2022-12-07T16:15:41;5.03;;;2.40;;
3207;SDS011;1616;52.394;9.756;2022-12-07T16:18:07;3.27;;;2.13;;
3207;SDS011;1616;52.394;9.756;2022-12-07T16:20:33;8.20;;;2.27;;
3207;SDS011;1616;52.394;9.756;2022-12-07T16:22:59;5.80;;;2.90;;
3207;SDS011;1616;52.394;9.756;2022-12-07T16:25:25;8.90;;;2.43;;
3207;SDS011;1616;52.394;9.756;2022-12-07T16:27:51;7.47;;;3.40;;
3207;SDS011;1616;52.394;9.756;2022-12-07T16:30:17;3.17;;;2.70;;
3207;SDS011;1616;52.394;9.756;2022-12-07T16:32:43;10.63;;;4.00;;
3207;SDS011;1616;52.394;9.756;2022-12-07T16:35:10;5.90;;;2.73;;
3207;SDS011;1616;52.394;9.756;2022-12-07T16:37:36;3.40;;;2.53;;
3207;SDS011;1616;52.394;9.756;2022-12-07T16:40:02;8.43;;;3.03;;
3207;SDS011;1616;52.394;9.756;2022-12-07T16:42:34;7.00;;;3.80;;
3207;SDS011;1616;52.394;9.756;2022-12-07T16:45:03;5.13;;;4.50;;
3207;SDS011;1616;52.394;9.756;2022-12-07T16:47:29;5.80;;;2.97;;
3207;SDS011;1616;52.394;9.756;2022-12-07T16:49:55;6.00;;;3.40;;
3207;SDS011;1616;52.394;9.756;2022-12-07T16:52:21;9.67;;;3.30;;
3207;SDS011;1616;52.394;9.756;2022-12-07T16:54:47;11.03;;;2.73;;
3207;SDS011;1616;52.394;9.756;2022-12-07T16:57:13;11.43;;;6.80;;
3207;SDS011;1616;52.394;9.756;2022-12-07T16:59:39;12.00;;;6.60;;
3207;SDS011;1616;52.394;9.756;2022-12-07T17:02:05;13.83;;;8.17;;
3207;SDS011;1616;52.394;9.756;2022-12-07T17:04:32;12.17;;;6.30;;